sensor_id;sensor_type;location;lat;lon;timestamp;pressure;altitude;pressure_sealevel;temperature;humidity
19860;BME280;2395;50.738;7.122;2022-09-24T00:01:24;100833.66;;;13.25;87.08
19860;BME280;2395;50.738;7.122;2022-09-24T00:03:54;100835.63;;;13.20;87.93
19860;BME280;2395;50.738;7.122;2022-09-24T00:06:23;100833.09;;;13.19;88.02
19860;BME280;2395;50.738;7.122;2022-09-24T00:08:53;100833.50;;;13.10;88.13
19860;BME280;2395;50.738;7.122;2022-09-24T00:11:22;100825.84;;;13.08;87.94
19860;BME280;2395;50.738;7.122;2022-09-24T00:13:50;100826.63;;;13.10;88.15
19860;BME280;2395;50.738;7.122;2022-09-24T00:16:20;100828.94;;;12.96;88.18
19860;BME280;2395;50.738;7.122;2022-09-24T00:18:48;100830.44;;;13.02;88.97
19860;BME280;2395;50.738;7.122;2022-09-24T00:21:17;100834.88;;;12.98;89.91
19860;BME280;2395;50.738;7.122;2022-09-24T00:23:49;100835.97;;;12.93;90.65
19860;BME280;2395;50.738;7.122;2022-09-24T00:26:17;100836.09;;;12.90;89.28
19860;BME280;2395;50.738;7.122;2022-09-24T00:29:03;100833.78;;;13.04;90.13
19860;BME280;2395;50.738;7.122;2022-09-24T00:31:31;100833.13;;;12.99;88.39
19860;BME280;2395;50.738;7.122;2022-09-24T00:33:58;100825.16;;;13.05;88.12
19860;BME280;2395;50.738;7.122;2022-09-24T00:36:26;100825.00;;;13.08;87.98
19860;BME280;2395;50.738;7.122;2022-09-24T00:38:57;100820.75;;;13.07;89.37
19860;BME280;2395;50.738;7.122;2022-09-24T00:41:28;100826.16;;;13.01;88.25
19860;BME280;2395;50.738;7.122;2022-09-24T00:43:57;100821.50;;;12.90;88.67
19860;BME280;2395;50.738;7.122;2022-09-24T00:46:28;100817.25;;;12.88;89.00
19860;BME280;2395;50.738;7.122;2022-09-24T00:49:00;100818.03;;;12.91;89.84
19860;BME280;2395;50.738;7.122;2022-09-24T00:54:16;100819.81;;;12.89;88.80
19860;BME280;2395;50.738;7.122;2022-09-24T00:56:48;100815.38;;;12.93;89.32
19860;BME280;2395;50.738;7.122;2022-09-24T00:59:19;100809.38;;;12.73;90.49
19860;BME280;2395;50.738;7.122;2022-09-24T01:01:49;100808.44;;;12.74;88.90
19860;BME280;2395;50.738;7.122;2022-09-24T01:04:19;100806.97;;;12.68;90.45
19860;BME280;2395;50.738;7.122;2022-09-24T01:06:47;100804.78;;;12.59;90.12
19860;BME280;2395;50.738;7.122;2022-09-24T01:09:17;100805.75;;;12.57;90.45
19860;BME280;2395;50.738;7.122;2022-09-24T01:11:57;100806.53;;;12.59;89.72
19860;BME280;2395;50.738;7.122;2022-09-24T01:14:42;100804.59;;;12.64;90.82
19860;BME280;2395;50.738;7.122;2022-09-24T01:17:24;100796.88;;;12.64;90.26
19860;BME280;2395;50.738;7.122;2022-09-24T01:20:19;100790.91;;;12.63;90.95
19860;BME280;2395;50.738;7.122;2022-09-24T01:23:11;100794.44;;;12.61;91.07
19860;BME280;2395;50.738;7.122;2022-09-24T01:26:02;100784.28;;;12.58;91.10
19860;BME280;2395;50.738;7.122;2022-09-24T01:28:52;100795.16;;;12.44;89.79
19860;BME280;2395;50.738;7.122;2022-09-24T01:31:37;100786.16;;;12.54;90.93
19860;BME280;2395;50.738;7.122;2022-09-24T01:34:12;100781.91;;;12.53;90.27
19860;BME280;2395;50.738;7.122;2022-09-24T01:36:44;100781.69;;;12.58;91.17
19860;BME280;2395;50.738;7.122;2022-09-24T01:39:13;100777.53;;;12.55;89.34
19860;BME280;2395;50.738;7.122;2022-09-24T01:41:42;100783.38;;;12.59;89.73
19860;BME280;2395;50.738;7.122;2022-09-24T01:44:12;100777.31;;;12.60;89.24
19860;BME280;2395;50.738;7.122;2022-09-24T01:46:44;100774.69;;;12.61;89.22
19860;BME280;2395;50.738;7.122;2022-09-24T01:49:11;100775.34;;;12.66;89.94
19860;BME280;2395;50.738;7.122;2022-09-24T01:51:44;100773.56;;;12.67;89.79
19860;BME280;2395;50.738;7.122;2022-09-24T01:54:20;100773.34;;;12.53;90.50
19860;BME280;2395;50.738;7.122;2022-09-24T01:56:54;100770.81;;;12.51;90.38
19860;BME280;2395;50.738;7.122;2022-09-24T01:59:31;100774.28;;;12.50;91.85
19860;BME280;2395;50.738;7.122;2022-09-24T02:02:08;100775.06;;;12.52;90.18
19860;BME280;2395;50.738;7.122;2022-09-24T02:04:43;100772.00;;;12.44;92.36
19860;BME280;2395;50.738;7.122;2022-09-24T02:07:19;100778.03;;;12.43;90.61
19860;BME280;2395;50.738;7.122;2022-09-24T02:09:49;100770.59;;;12.37;92.09
19860;BME280;2395;50.738;7.122;2022-09-24T02:12:21;100768.84;;;12.38;91.37
19860;BME280;2395;50.738;7.122;2022-09-24T02:15:00;100766.06;;;12.42;91.23
19860;BME280;2395;50.738;7.122;2022-09-24T02:17:34;100772.41;;;12.34;90.40
19860;BME280;2395;50.738;7.122;2022-09-24T02:20:06;100768.84;;;12.38;92.50
19860;BME280;2395;50.738;7.122;2022-09-24T02:22:37;100770.69;;;12.34;91.23
19860;BME280;2395;50.738;7.122;2022-09-24T02:25:09;100767.16;;;12.37;91.66
19860;BME280;2395;50.738;7.122;2022-09-24T02:27:39;100772.97;;;12.42;91.33
19860;BME280;2395;50.738;7.122;2022-09-24T02:30:08;100762.88;;;12.37;92.19
19860;BME280;2395;50.738;7.122;2022-09-24T02:32:40;100766.72;;;12.27;91.52
19860;BME280;2395;50.738;7.122;2022-09-24T02:35:10;100753.97;;;12.44;92.20
19860;BME280;2395;50.738;7.122;2022-09-24T02:37:41;100752.56;;;12.37;91.41
19860;BME280;2395;50.738;7.122;2022-09-24T02:40:12;100746.44;;;12.40;92.18
19860;BME280;2395;50.738;7.122;2022-09-24T02:42:41;100745.25;;;12.28;90.47
19860;BME280;2395;50.738;7.122;2022-09-24T02:45:09;100736.53;;;12.31;91.84
19860;BME280;2395;50.738;7.122;2022-09-24T02:47:38;100742.00;;;12.23;91.95
19860;BME280;2395;50.738;7.122;2022-09-24T02:50:06;100738.66;;;12.21;91.51
19860;BME280;2395;50.738;7.122;2022-09-24T02:52:33;100734.16;;;12.26;91.57
19860;BME280;2395;50.738;7.122;2022-09-24T02:55:00;100741.22;;;12.21;92.04
19860;BME280;2395;50.738;7.122;2022-09-24T02:57:27;100745.53;;;12.21;91.14
19860;BME280;2395;50.738;7.122;2022-09-24T02:59:54;100742.13;;;12.20;92.58
19860;BME280;2395;50.738;7.122;2022-09-24T03:02:21;100742.78;;;12.25;92.27
19860;BME280;2395;50.738;7.122;2022-09-24T03:04:50;100750.94;;;12.15;93.19
19860;BME280;2395;50.738;7.122;2022-09-24T03:07:17;100744.09;;;12.14;93.28
19860;BME280;2395;50.738;7.122;2022-09-24T03:09:46;100750.63;;;12.22;93.39
19860;BME280;2395;50.738;7.122;2022-09-24T03:12:13;100747.13;;;12.03;93.02
19860;BME280;2395;50.738;7.122;2022-09-24T03:14:40;100745.34;;;12.05;92.16
19860;BME280;2395;50.738;7.122;2022-09-24T03:17:07;100745.75;;;12.16;93.46
19860;BME280;2395;50.738;7.122;2022-09-24T03:19:34;100745.75;;;12.16;91.87
19860;BME280;2395;50.738;7.122;2022-09-24T03:22:02;100750.75;;;12.19;92.44
19860;BME280;2395;50.738;7.122;2022-09-24T03:24:29;100744.69;;;12.20;91.66
19860;BME280;2395;50.738;7.122;2022-09-24T03:26:56;100752.19;;;12.26;91.31
19860;BME280;2395;50.738;7.122;2022-09-24T03:29:23;100751.50;;;12.21;92.30
19860;BME280;2395;50.738;7.122;2022-09-24T03:32:06;100750.88;;;12.16;91.46
19860;BME280;2395;50.738;7.122;2022-09-24T03:34:33;100751.59;;;12.20;91.42
19860;BME280;2395;50.738;7.122;2022-09-24T03:37:02;100748.03;;;12.22;90.85
19860;BME280;2395;50.738;7.122;2022-09-24T03:39:29;100747.22;;;12.22;91.58
19860;BME280;2395;50.738;7.122;2022-09-24T03:41:56;100752.50;;;12.19;92.19
19860;BME280;2395;50.738;7.122;2022-09-24T03:44:23;100748.16;;;12.19;91.47
19860;BME280;2395;50.738;7.122;2022-09-24T03:46:50;100739.56;;;12.20;92.20
19860;BME280;2395;50.738;7.122;2022-09-24T03:49:17;100746.25;;;12.24;91.95
19860;BME280;2395;50.738;7.122;2022-09-24T03:51:44;100742.78;;;12.25;92.58
19860;BME280;2395;50.738;7.122;2022-09-24T03:54:12;100737.38;;;12.31;91.70
19860;BME280;2395;50.738;7.122;2022-09-24T03:56:39;100731.09;;;12.38;90.71
19860;BME280;2395;50.738;7.122;2022-09-24T03:59:06;100736.94;;;12.42;91.49
19860;BME280;2395;50.738;7.122;2022-09-24T04:01:34;100727.38;;;12.44;91.88
19860;BME280;2395;50.738;7.122;2022-09-24T04:04:02;100730.88;;;12.43;90.61
19860;BME280;2395;50.738;7.122;2022-09-24T04:06:29;100728.75;;;12.32;90.27
19860;BME280;2395;50.738;7.122;2022-09-24T04:08:56;100725.41;;;12.30;91.04
19860;BME280;2395;50.738;7.122;2022-09-24T04:11:26;100731.25;;;12.34;90.71
19860;BME280;2395;50.738;7.122;2022-09-24T04:13:53;100721.69;;;12.37;90.73
19860;BME280;2395;50.738;7.122;2022-09-24T04:16:20;100714.97;;;12.53;90.55
19860;BME280;2395;50.738;7.122;2022-09-24T04:18:47;100720.75;;;12.58;91.40
19860;BME280;2395;50.738;7.122;2022-09-24T04:21:14;100710.59;;;12.55;90.68
19860;BME280;2395;50.738;7.122;2022-09-24T04:23:41;100713.41;;;12.49;91.01
19860;BME280;2395;50.738;7.122;2022-09-24T04:26:08;100712.50;;;12.32;89.23
19860;BME280;2395;50.738;7.122;2022-09-24T04:28:36;100705.34;;;12.38;90.52
19860;BME280;2395;50.738;7.122;2022-09-24T04:31:03;100709.69;;;12.56;89.49
19860;BME280;2395;50.738;7.122;2022-09-24T04:33:30;100708.66;;;12.60;89.13
19860;BME280;2395;50.738;7.122;2022-09-24T04:35:57;100710.44;;;12.58;88.21
19860;BME280;2395;50.738;7.122;2022-09-24T04:38:24;100707.88;;;12.58;89.07
19860;BME280;2395;50.738;7.122;2022-09-24T04:40:51;100700.22;;;12.57;89.67
19860;BME280;2395;50.738;7.122;2022-09-24T04:43:18;100703.09;;;12.31;89.05
19860;BME280;2395;50.738;7.122;2022-09-24T04:45:46;100705.53;;;12.34;90.58
19860;BME280;2395;50.738;7.122;2022-09-24T04:48:13;100705.78;;;12.28;90.61
19860;BME280;2395;50.738;7.122;2022-09-24T04:50:40;100703.34;;;12.25;89.52
19860;BME280;2395;50.738;7.122;2022-09-24T04:53:07;100700.75;;;12.25;90.67
19860;BME280;2395;50.738;7.122;2022-09-24T04:55:34;100699.16;;;12.22;89.61
19860;BME280;2395;50.738;7.122;2022-09-24T04:58:01;100691.94;;;12.30;90.17
19860;BME280;2395;50.738;7.122;2022-09-24T05:00:28;100691.72;;;12.36;89.20
19860;BME280;2395;50.738;7.122;2022-09-24T05:03:01;100688.66;;;12.47;89.18
19860;BME280;2395;50.738;7.122;2022-09-24T05:05:29;100687.06;;;12.44;88.73
19860;BME280;2395;50.738;7.122;2022-09-24T05:07:57;100685.06;;;12.51;89.54
19860;BME280;2395;50.738;7.122;2022-09-24T05:10:25;100686.53;;;12.56;88.97
19860;BME280;2395;50.738;7.122;2022-09-24T05:12:53;100690.13;;;12.52;89.30
19860;BME280;2395;50.738;7.122;2022-09-24T05:15:20;100671.72;;;12.61;88.94
19860;BME280;2395;50.738;7.122;2022-09-24T05:17:48;100673.38;;;12.62;90.14
19860;BME280;2395;50.738;7.122;2022-09-24T05:20:16;100676.53;;;12.69;89.60
19860;BME280;2395;50.738;7.122;2022-09-24T05:22:44;100674.97;;;12.46;89.17
19860;BME280;2395;50.738;7.122;2022-09-24T05:25:14;100681.50;;;12.53;88.71
19860;BME280;2395;50.738;7.122;2022-09-24T05:27:46;100679.44;;;12.61;88.60
19860;BME280;2395;50.738;7.122;2022-09-24T05:30:14;100677.63;;;12.63;88.57
19860;BME280;2395;50.738;7.122;2022-09-24T05:33:27;100689.72;;;12.61;89.20
19860;BME280;2395;50.738;7.122;2022-09-24T05:36:19;100676.97;;;12.58;89.61
19860;BME280;2395;50.738;7.122;2022-09-24T05:38:47;100676.44;;;12.70;89.46
19860;BME280;2395;50.738;7.122;2022-09-24T05:41:14;100677.34;;;12.69;89.38
19860;BME280;2395;50.738;7.122;2022-09-24T05:43:41;100693.84;;;12.65;89.58
19860;BME280;2395;50.738;7.122;2022-09-24T05:46:09;100673.19;;;12.67;89.72
19860;BME280;2395;50.738;7.122;2022-09-24T05:48:44;100689.84;;;12.58;87.78
19860;BME280;2395;50.738;7.122;2022-09-24T05:51:23;100688.69;;;12.27;89.89
19860;BME280;2395;50.738;7.122;2022-09-24T05:53:50;100692.41;;;12.40;90.01
19860;BME280;2395;50.738;7.122;2022-09-24T05:56:18;100712.91;;;12.61;89.76
19860;BME280;2395;50.738;7.122;2022-09-24T05:58:47;100697.22;;;12.47;88.85
19860;BME280;2395;50.738;7.122;2022-09-24T06:01:15;100717.25;;;12.59;88.78
19860;BME280;2395;50.738;7.122;2022-09-24T06:03:42;100713.38;;;12.69;88.95
19860;BME280;2395;50.738;7.122;2022-09-24T06:06:09;100718.75;;;12.65;87.40
19860;BME280;2395;50.738;7.122;2022-09-24T06:08:38;100713.78;;;12.60;87.47
19860;BME280;2395;50.738;7.122;2022-09-24T06:11:06;100714.91;;;12.55;88.01
19860;BME280;2395;50.738;7.122;2022-09-24T06:13:34;100716.00;;;12.87;87.56
19860;BME280;2395;50.738;7.122;2022-09-24T06:16:02;100716.88;;;13.06;86.09
19860;BME280;2395;50.738;7.122;2022-09-24T06:18:32;100719.88;;;13.16;85.73
19860;BME280;2395;50.738;7.122;2022-09-24T06:21:00;100711.78;;;13.23;85.75
19860;BME280;2395;50.738;7.122;2022-09-24T06:23:28;100717.34;;;13.14;84.70
19860;BME280;2395;50.738;7.122;2022-09-24T06:25:57;100728.66;;;13.30;84.53
19860;BME280;2395;50.738;7.122;2022-09-24T06:28:24;100715.44;;;13.55;83.88
19860;BME280;2395;50.738;7.122;2022-09-24T06:30:51;100720.75;;;13.52;84.49
19860;BME280;2395;50.738;7.122;2022-09-24T06:33:19;100721.78;;;13.48;84.27
19860;BME280;2395;50.738;7.122;2022-09-24T06:35:47;100724.91;;;13.54;83.89
19860;BME280;2395;50.738;7.122;2022-09-24T06:38:16;100722.63;;;13.48;82.91
19860;BME280;2395;50.738;7.122;2022-09-24T06:40:45;100725.91;;;13.33;84.34
19860;BME280;2395;50.738;7.122;2022-09-24T06:43:14;100733.00;;;13.47;83.72
19860;BME280;2395;50.738;7.122;2022-09-24T06:45:43;100731.13;;;13.50;84.28
19860;BME280;2395;50.738;7.122;2022-09-24T06:48:13;100732.19;;;13.63;82.62
19860;BME280;2395;50.738;7.122;2022-09-24T06:50:42;100733.81;;;13.66;81.76
19860;BME280;2395;50.738;7.122;2022-09-24T06:53:11;100744.59;;;13.73;83.72
19860;BME280;2395;50.738;7.122;2022-09-24T06:55:39;100744.59;;;13.73;81.34
19860;BME280;2395;50.738;7.122;2022-09-24T06:58:09;100738.53;;;13.74;81.59
19860;BME280;2395;50.738;7.122;2022-09-24T07:00:38;100739.69;;;13.86;81.06
19860;BME280;2395;50.738;7.122;2022-09-24T07:03:06;100728.59;;;14.01;82.06
19860;BME280;2395;50.738;7.122;2022-09-24T07:05:33;100725.56;;;14.10;80.06
19860;BME280;2395;50.738;7.122;2022-09-24T07:08:01;100730.31;;;14.36;81.20
19860;BME280;2395;50.738;7.122;2022-09-24T07:10:31;100736.84;;;14.09;79.18
19860;BME280;2395;50.738;7.122;2022-09-24T07:13:06;100735.47;;;14.36;79.52
19860;BME280;2395;50.738;7.122;2022-09-24T07:15:33;100732.03;;;14.35;78.92
19860;BME280;2395;50.738;7.122;2022-09-24T07:18:02;100734.63;;;14.35;78.71
19860;BME280;2395;50.738;7.122;2022-09-24T07:20:29;100729.75;;;14.63;77.38
19860;BME280;2395;50.738;7.122;2022-09-24T07:22:57;100726.84;;;14.69;77.73
19860;BME280;2395;50.738;7.122;2022-09-24T07:25:24;100724.97;;;14.88;77.13
19860;BME280;2395;50.738;7.122;2022-09-24T07:27:51;100733.09;;;14.48;78.18
19860;BME280;2395;50.738;7.122;2022-09-24T07:30:18;100730.25;;;14.69;78.26
19860;BME280;2395;50.738;7.122;2022-09-24T07:32:46;100734.19;;;14.76;77.39
19860;BME280;2395;50.738;7.122;2022-09-24T07:35:15;100743.81;;;14.90;77.02
19860;BME280;2395;50.738;7.122;2022-09-24T07:37:43;100735.63;;;14.82;76.47
19860;BME280;2395;50.738;7.122;2022-09-24T07:40:10;100735.88;;;14.60;76.24
19860;BME280;2395;50.738;7.122;2022-09-24T07:42:45;100734.06;;;14.62;76.57
19860;BME280;2395;50.738;7.122;2022-09-24T07:45:13;100741.34;;;14.71;75.85
19860;BME280;2395;50.738;7.122;2022-09-24T07:47:40;100740.81;;;14.82;75.64
19860;BME280;2395;50.738;7.122;2022-09-24T07:50:08;100740.50;;;15.03;75.47
19860;BME280;2395;50.738;7.122;2022-09-24T07:52:37;100738.03;;;15.17;73.17
19860;BME280;2395;50.738;7.122;2022-09-24T07:55:06;100735.75;;;15.11;74.20
19860;BME280;2395;50.738;7.122;2022-09-24T07:57:33;100741.09;;;15.24;73.86
19860;BME280;2395;50.738;7.122;2022-09-24T08:00:00;100746.91;;;15.29;72.96
19860;BME280;2395;50.738;7.122;2022-09-24T08:02:27;100743.47;;;15.28;73.60
19860;BME280;2395;50.738;7.122;2022-09-24T08:04:54;100750.59;;;15.08;73.52
19860;BME280;2395;50.738;7.122;2022-09-24T08:07:21;100756.34;;;15.13;74.61
19860;BME280;2395;50.738;7.122;2022-09-24T08:09:49;100751.13;;;14.82;74.81
19860;BME280;2395;50.738;7.122;2022-09-24T08:12:16;100750.84;;;14.71;76.08
19860;BME280;2395;50.738;7.122;2022-09-24T08:14:43;100749.94;;;14.72;77.09
19860;BME280;2395;50.738;7.122;2022-09-24T08:17:10;100754.81;;;15.26;75.12
19860;BME280;2395;50.738;7.122;2022-09-24T08:19:43;100747.47;;;15.34;75.06
19860;BME280;2395;50.738;7.122;2022-09-24T08:22:10;100750.22;;;14.98;75.07
19860;BME280;2395;50.738;7.122;2022-09-24T08:24:38;100754.97;;;14.90;75.72
19860;BME280;2395;50.738;7.122;2022-09-24T08:27:08;100750.56;;;15.40;75.49
19860;BME280;2395;50.738;7.122;2022-09-24T08:29:35;100748.97;;;15.68;73.78
19860;BME280;2395;50.738;7.122;2022-09-24T08:32:02;100752.94;;;15.89;72.50
19860;BME280;2395;50.738;7.122;2022-09-24T08:34:28;100751.63;;;16.12;72.09
19860;BME280;2395;50.738;7.122;2022-09-24T08:36:55;100747.78;;;15.74;73.01
19860;BME280;2395;50.738;7.122;2022-09-24T08:39:48;100748.94;;;16.13;73.07
19860;BME280;2395;50.738;7.122;2022-09-24T08:42:40;100753.94;;;16.31;71.17
19860;BME280;2395;50.738;7.122;2022-09-24T08:45:11;100763.88;;;16.53;70.64
19860;BME280;2395;50.738;7.122;2022-09-24T08:48:01;100756.41;;;16.76;68.63
19860;BME280;2395;50.738;7.122;2022-09-24T08:50:32;100752.16;;;16.89;67.87
19860;BME280;2395;50.738;7.122;2022-09-24T08:53:15;100749.19;;;15.95;71.37
19860;BME280;2395;50.738;7.122;2022-09-24T08:55:46;100748.41;;;16.65;69.76
19860;BME280;2395;50.738;7.122;2022-09-24T08:58:30;100750.28;;;17.33;67.03
19860;BME280;2395;50.738;7.122;2022-09-24T09:01:07;100748.25;;;17.91;65.00
19860;BME280;2395;50.738;7.122;2022-09-24T09:03:45;100755.47;;;18.00;63.41
19860;BME280;2395;50.738;7.122;2022-09-24T09:06:39;100744.78;;;18.16;63.00
19860;BME280;2395;50.738;7.122;2022-09-24T09:09:14;100742.16;;;18.04;62.56
19860;BME280;2395;50.738;7.122;2022-09-24T09:11:46;100744.91;;;18.15;62.51
19860;BME280;2395;50.738;7.122;2022-09-24T09:14:19;100740.88;;;18.23;62.46
19860;BME280;2395;50.738;7.122;2022-09-24T09:16:52;100747.31;;;17.92;62.84
19860;BME280;2395;50.738;7.122;2022-09-24T09:19:26;100741.13;;;17.68;63.51
19860;BME280;2395;50.738;7.122;2022-09-24T09:22:00;100743.22;;;18.14;63.34
19860;BME280;2395;50.738;7.122;2022-09-24T09:24:39;100736.69;;;18.21;62.61
19860;BME280;2395;50.738;7.122;2022-09-24T09:27:12;100740.81;;;18.11;63.29
19860;BME280;2395;50.738;7.122;2022-09-24T09:29:43;100736.94;;;18.80;63.67
19860;BME280;2395;50.738;7.122;2022-09-24T09:32:25;100735.19;;;18.31;62.19
19860;BME280;2395;50.738;7.122;2022-09-24T09:35:04;100741.47;;;17.88;63.94
19860;BME280;2395;50.738;7.122;2022-09-24T09:37:45;100740.38;;;18.56;63.30
19860;BME280;2395;50.738;7.122;2022-09-24T09:40:28;100738.53;;;18.83;61.47
19860;BME280;2395;50.738;7.122;2022-09-24T09:43:00;100740.81;;;18.50;61.75
19860;BME280;2395;50.738;7.122;2022-09-24T09:45:39;100734.06;;;18.08;63.01
19860;BME280;2395;50.738;7.122;2022-09-24T09:48:09;100740.50;;;18.67;61.07
19860;BME280;2395;50.738;7.122;2022-09-24T09:50:43;100745.06;;;18.63;60.53
19860;BME280;2395;50.738;7.122;2022-09-24T09:53:19;100741.63;;;18.38;61.50
19860;BME280;2395;50.738;7.122;2022-09-24T09:55:53;100745.59;;;18.68;61.02
19860;BME280;2395;50.738;7.122;2022-09-24T09:58:24;100745.06;;;18.76;59.54
19860;BME280;2395;50.738;7.122;2022-09-24T10:01:04;100749.53;;;18.36;61.72
19860;BME280;2395;50.738;7.122;2022-09-24T10:03:34;100743.72;;;18.83;60.39
19860;BME280;2395;50.738;7.122;2022-09-24T10:06:06;100746.31;;;18.83;61.53
19860;BME280;2395;50.738;7.122;2022-09-24T10:08:33;100752.53;;;18.80;62.75
19860;BME280;2395;50.738;7.122;2022-09-24T10:11:01;100745.91;;;18.88;62.14
19860;BME280;2395;50.738;7.122;2022-09-24T10:13:29;100745.78;;;19.15;61.99
19860;BME280;2395;50.738;7.122;2022-09-24T10:16:02;100742.06;;;18.44;63.46
19860;BME280;2395;50.738;7.122;2022-09-24T10:18:33;100742.88;;;19.19;62.36
19860;BME280;2395;50.738;7.122;2022-09-24T10:21:05;100737.09;;;19.39;60.52
19860;BME280;2395;50.738;7.122;2022-09-24T10:23:38;100744.94;;;19.14;62.29
19860;BME280;2395;50.738;7.122;2022-09-24T10:26:08;100742.25;;;19.03;61.67
19860;BME280;2395;50.738;7.122;2022-09-24T10:28:40;100738.94;;;18.77;63.05
19860;BME280;2395;50.738;7.122;2022-09-24T10:31:34;100731.13;;;19.01;62.12
19860;BME280;2395;50.738;7.122;2022-09-24T10:34:04;100729.78;;;18.96;62.06
19860;BME280;2395;50.738;7.122;2022-09-24T10:36:50;100731.44;;;18.85;63.66
19860;BME280;2395;50.738;7.122;2022-09-24T10:39:20;100719.84;;;19.01;63.60
19860;BME280;2395;50.738;7.122;2022-09-24T10:41:50;100718.31;;;18.98;63.45
19860;BME280;2395;50.738;7.122;2022-09-24T10:44:19;100725.19;;;19.12;62.60
19860;BME280;2395;50.738;7.122;2022-09-24T10:47:06;100718.22;;;18.50;63.94
19860;BME280;2395;50.738;7.122;2022-09-24T10:49:54;100725.63;;;18.56;63.10
19860;BME280;2395;50.738;7.122;2022-09-24T10:52:43;100716.38;;;18.65;62.71
19860;BME280;2395;50.738;7.122;2022-09-24T10:55:36;100719.59;;;18.68;63.44
19860;BME280;2395;50.738;7.122;2022-09-24T10:58:20;100714.38;;;18.93;62.51
19860;BME280;2395;50.738;7.122;2022-09-24T11:01:04;100713.31;;;19.20;61.92
19860;BME280;2395;50.738;7.122;2022-09-24T11:04:15;100712.72;;;19.64;61.60
19860;BME280;2395;50.738;7.122;2022-09-24T11:07:08;100713.66;;;19.86;60.44
19860;BME280;2395;50.738;7.122;2022-09-24T11:09:52;100706.25;;;19.69;60.16
19860;BME280;2395;50.738;7.122;2022-09-24T11:12:31;100702.91;;;19.44;61.11
19860;BME280;2395;50.738;7.122;2022-09-24T11:15:25;100710.50;;;19.11;62.00
19860;BME280;2395;50.738;7.122;2022-09-24T11:18:17;100714.16;;;18.96;62.88
19860;BME280;2395;50.738;7.122;2022-09-24T11:21:06;100708.81;;;19.10;62.09
19860;BME280;2395;50.738;7.122;2022-09-24T11:24:09;100703.44;;;19.00;62.48
19860;BME280;2395;50.738;7.122;2022-09-24T11:26:57;100702.63;;;18.50;63.69
19860;BME280;2395;50.738;7.122;2022-09-24T11:29:53;100709.63;;;18.50;65.01
19860;BME280;2395;50.738;7.122;2022-09-24T11:32:35;100704.94;;;18.55;63.84
19860;BME280;2395;50.738;7.122;2022-09-24T11:35:26;100704.22;;;18.40;64.41
19860;BME280;2395;50.738;7.122;2022-09-24T11:38:06;100700.66;;;18.41;63.16
19860;BME280;2395;50.738;7.122;2022-09-24T11:41:00;100700.78;;;18.27;64.75
19860;BME280;2395;50.738;7.122;2022-09-24T11:43:57;100699.00;;;18.28;63.26
19860;BME280;2395;50.738;7.122;2022-09-24T11:46:49;100695.25;;;18.19;64.22
19860;BME280;2395;50.738;7.122;2022-09-24T11:49:44;100700.34;;;18.33;64.28
19860;BME280;2395;50.738;7.122;2022-09-24T11:52:29;100698.50;;;18.35;64.00
19860;BME280;2395;50.738;7.122;2022-09-24T11:55:11;100700.50;;;17.93;65.48
19860;BME280;2395;50.738;7.122;2022-09-24T11:57:46;100699.56;;;17.94;65.67
19860;BME280;2395;50.738;7.122;2022-09-24T12:00:19;100692.41;;;18.10;65.09
19860;BME280;2395;50.738;7.122;2022-09-24T12:02:51;100697.41;;;18.13;65.46
19860;BME280;2395;50.738;7.122;2022-09-24T12:05:28;100690.75;;;18.09;65.41
19860;BME280;2395;50.738;7.122;2022-09-24T12:08:01;100692.72;;;18.18;65.05
19860;BME280;2395;50.738;7.122;2022-09-24T12:10:41;100681.47;;;17.93;65.63
19860;BME280;2395;50.738;7.122;2022-09-24T12:13:15;100683.56;;;18.00;64.81
19860;BME280;2395;50.738;7.122;2022-09-24T12:15:51;100688.88;;;17.99;65.27
19860;BME280;2395;50.738;7.122;2022-09-24T12:18:25;100691.16;;;18.03;64.51
19860;BME280;2395;50.738;7.122;2022-09-24T12:20:58;100688.69;;;18.14;64.37
19860;BME280;2395;50.738;7.122;2022-09-24T12:23:31;100690.47;;;18.26;64.46
19860;BME280;2395;50.738;7.122;2022-09-24T12:26:04;100687.06;;;18.25;63.96
19860;BME280;2395;50.738;7.122;2022-09-24T12:28:40;100687.69;;;18.29;63.46
19860;BME280;2395;50.738;7.122;2022-09-24T12:31:38;100690.00;;;17.95;65.03
19860;BME280;2395;50.738;7.122;2022-09-24T12:34:39;100690.59;;;18.24;64.80
19860;BME280;2395;50.738;7.122;2022-09-24T12:37:13;100687.28;;;18.35;65.52
19860;BME280;2395;50.738;7.122;2022-09-24T12:39:47;100684.25;;;18.41;64.53
19860;BME280;2395;50.738;7.122;2022-09-24T12:42:20;100680.50;;;18.57;64.90
19860;BME280;2395;50.738;7.122;2022-09-24T12:44:52;100683.72;;;18.73;64.92
19860;BME280;2395;50.738;7.122;2022-09-24T12:47:23;100678.25;;;19.01;62.92
19860;BME280;2395;50.738;7.122;2022-09-24T12:49:55;100680.63;;;19.16;62.69
19860;BME280;2395;50.738;7.122;2022-09-24T12:52:29;100681.88;;;19.23;62.75
19860;BME280;2395;50.738;7.122;2022-09-24T12:55:00;100679.28;;;19.11;63.26
19860;BME280;2395;50.738;7.122;2022-09-24T12:57:34;100681.03;;;19.23;62.78
19860;BME280;2395;50.738;7.122;2022-09-24T13:00:33;100678.69;;;19.31;62.29
19860;BME280;2395;50.738;7.122;2022-09-24T13:03:02;100682.50;;;19.14;61.79
19860;BME280;2395;50.738;7.122;2022-09-24T13:05:45;100676.50;;;19.01;62.98
19860;BME280;2395;50.738;7.122;2022-09-24T13:08:25;100677.50;;;18.51;63.83
19860;BME280;2395;50.738;7.122;2022-09-24T13:10:54;100677.47;;;18.63;63.53
19860;BME280;2395;50.738;7.122;2022-09-24T13:13:25;100674.16;;;18.74;63.64
19860;BME280;2395;50.738;7.122;2022-09-24T13:16:03;100665.53;;;18.61;63.80
19860;BME280;2395;50.738;7.122;2022-09-24T13:18:34;100669.06;;;18.60;64.73
19860;BME280;2395;50.738;7.122;2022-09-24T13:21:05;100665.13;;;18.54;64.74
19860;BME280;2395;50.738;7.122;2022-09-24T13:23:45;100661.69;;;18.41;66.39
19860;BME280;2395;50.738;7.122;2022-09-24T13:26:28;100670.66;;;18.25;67.23
19860;BME280;2395;50.738;7.122;2022-09-24T13:28:59;100660.56;;;18.33;67.71
19860;BME280;2395;50.738;7.122;2022-09-24T13:31:39;100662.44;;;18.31;68.43
19860;BME280;2395;50.738;7.122;2022-09-24T13:34:18;100659.06;;;18.16;68.80